Time;durP1;ratioP1;P1;durP2;ratioP2;P2;SDS_P1;SDS_P2;PMS_P1;PMS_P2;Temp;Humidity;BMP_temperature;BMP_pressure;BME280_temperature;BME280_humidity;BME280_pressure;Samples;Min_cycle;Max_cycle;Signal;HPM_P1;HPM_P2
2022/02/12 05:02:37;;;;;;;104.03;23.13;;;-0.60;99.90;;;;;;4959256;29;20483;-66
2022/02/12 05:05:05;;;;;;;43.97;20.40;;;-0.60;99.90;;;;;;4959447;29;20460;-65
2022/02/12 05:07:31;;;;;;;104.83;22.90;;;-0.50;99.90;;;;;;4961225;29;20450;-66
2022/02/12 05:09:58;;;;;;;90.33;21.80;;;-0.60;99.90;;;;;;4960699;29;20520;-66
2022/02/12 05:12:25;;;;;;;46.83;20.07;;;-0.50;99.90;;;;;;4961257;29;20461;-65
2022/02/12 05:14:52;;;;;;;73.30;21.47;;;-0.50;99.90;;;;;;4961038;29;20455;-66
2022/02/12 05:17:19;;;;;;;135.43;24.60;;;-0.60;99.90;;;;;;4952342;29;20456;-66
2022/02/12 05:19:47;;;;;;;257.17;28.50;;;-0.60;99.90;;;;;;4938793;29;20492;-65
2022/02/12 05:22:14;;;;;;;76.53;24.03;;;-0.70;99.90;;;;;;4937990;29;20505;-66
2022/02/12 05:24:42;;;;;;;81.07;24.20;;;-0.70;99.90;;;;;;4938217;29;20461;-65
2022/02/12 05:27:09;;;;;;;81.47;23.33;;;-0.70;99.90;;;;;;4938359;29;20542;-65
2022/02/12 05:29:37;;;;;;;132.53;24.93;;;-0.70;99.90;;;;;;4937898;29;20485;-66
2022/02/12 05:32:04;;;;;;;131.70;24.50;;;-0.60;99.90;;;;;;4938297;29;20529;-66
2022/02/12 05:34:31;;;;;;;82.80;22.80;;;-0.60;99.90;;;;;;4942579;29;20948;-66
2022/02/12 05:36:59;;;;;;;68.60;23.50;;;-0.60;99.90;;;;;;4942204;29;20464;-66
2022/02/12 05:39:26;;;;;;;153.67;28.00;;;-0.60;99.90;;;;;;4939583;29;20454;-66
2022/02/12 05:41:52;;;;;;;74.97;24.37;;;-0.60;99.90;;;;;;4940668;29;20479;-65
2022/02/12 05:44:19;;;;;;;72.10;24.43;;;-0.60;99.90;;;;;;4957886;29;20441;-67
2022/02/12 05:46:46;;;;;;;43.27;22.30;;;-0.60;99.90;;;;;;4953195;29;20452;-66
2022/02/12 05:49:13;;;;;;;40.70;23.73;;;-0.60;99.90;;;;;;4940862;29;20458;-66
2022/02/12 05:51:39;;;;;;;54.40;24.23;;;-0.60;99.90;;;;;;4937680;29;20559;-66
2022/02/12 05:54:07;;;;;;;40.83;23.40;;;-0.50;99.90;;;;;;4937290;29;20464;-66
2022/02/12 05:56:35;;;;;;;41.63;23.77;;;-0.50;99.90;;;;;;4937233;29;20550;-66
2022/02/12 05:59:08;;;;;;;44.73;22.93;;;-0.50;99.90;;;;;;4937488;29;20484;-66
2022/02/12 06:01:35;;;;;;;87.67;23.30;;;-0.50;99.90;;;;;;4958393;29;20518;-66
2022/02/12 06:04:01;;;;;;;56.87;22.77;;;-0.50;99.90;;;;;;4946920;29;20453;-67
2022/02/12 06:06:28;;;;;;;91.37;21.57;;;-0.70;99.90;;;;;;4937173;29;20457;-66
2022/02/12 06:08:55;;;;;;;55.83;21.73;;;-0.60;99.90;;;;;;4937377;29;20468;-66
2022/02/12 06:11:23;;;;;;;72.83;20.83;;;-0.60;99.90;;;;;;4937080;29;20536;-66
2022/02/12 06:13:51;;;;;;;79.07;21.83;;;-0.60;99.90;;;;;;4936954;29;20464;-66
2022/02/12 06:16:19;;;;;;;134.03;22.90;;;-0.70;99.90;;;;;;4937696;29;20508;-67
2022/02/12 06:18:46;;;;;;;46.90;20.00;;;-0.60;99.90;;;;;;4941226;29;20459;-66
2022/02/12 06:21:12;;;;;;;40.23;21.40;;;-0.60;99.90;;;;;;4938263;29;20480;-66
2022/02/12 06:23:39;;;;;;;133.47;22.10;;;-0.60;99.90;;;;;;4937522;29;20453;-65
2022/02/12 06:26:07;;;;;;;119.00;21.50;;;-0.70;99.90;;;;;;4937586;29;20948;-66
2022/02/12 06:28:36;;;;;;;99.13;21.30;;;-0.80;99.90;;;;;;4937893;29;20457;-66
2022/02/12 06:31:02;;;;;;;61.50;20.80;;;-0.80;99.90;;;;;;4938532;29;20489;-67
2022/02/12 06:33:29;;;;;;;72.50;20.53;;;-0.80;99.90;;;;;;4938162;29;20467;-66
2022/02/12 06:35:56;;;;;;;117.67;23.50;;;-0.80;99.90;;;;;;4940839;29;20461;-67
2022/02/12 06:38:23;;;;;;;55.40;20.40;;;-0.80;99.90;;;;;;4958567;29;20453;-66
2022/02/12 06:40:50;;;;;;;296.33;25.60;;;-0.80;99.90;;;;;;4939548;29;20477;-66
2022/02/12 06:43:16;;;;;;;289.87;25.67;;;-0.90;99.90;;;;;;4941322;29;20457;-66
2022/02/12 06:45:45;;;;;;;117.57;20.77;;;-1.00;99.90;;;;;;4941727;29;20464;-66
2022/02/12 06:48:12;;;;;;;209.60;24.53;;;-1.00;99.90;;;;;;4941940;29;20975;-66
2022/02/12 06:50:39;;;;;;;94.60;19.10;;;-1.10;99.90;;;;;;4936993;29;20487;-65
2022/02/12 06:53:05;;;;;;;80.53;18.67;;;-1.10;99.90;;;;;;4937253;29;20859;-66
2022/02/12 06:55:32;;;;;;;77.23;20.90;;;-1.00;99.90;;;;;;4937238;29;20536;-66
2022/02/12 06:57:59;;;;;;;53.47;20.83;;;-1.00;99.90;;;;;;4937102;29;20981;-65
2022/02/12 07:00:27;;;;;;;102.50;23.30;;;-1.00;99.90;;;;;;4937098;29;20467;-66
2022/02/12 07:02:55;;;;;;;119.63;19.13;;;-1.00;99.90;;;;;;4936918;29;20445;-65
2022/02/12 07:05:22;;;;;;;127.13;19.93;;;-1.00;99.90;;;;;;4937069;29;20465;-66
2022/02/12 07:07:50;;;;;;;122.33;20.73;;;-1.00;99.90;;;;;;4937083;29;20461;-65
2022/02/12 07:10:18;;;;;;;65.50;18.90;;;-1.00;99.90;;;;;;4937630;29;20508;-68
2022/02/12 07:12:44;;;;;;;30.40;15.83;;;-0.90;99.90;;;;;;4936790;29;20461;-66
2022/02/12 07:15:12;;;;;;;45.90;17.33;;;-1.00;99.90;;;;;;4944393;29;20449;-66
2022/02/12 07:17:40;;;;;;;47.07;16.83;;;-0.90;99.90;;;;;;4955279;29;20466;-67
2022/02/12 07:20:09;;;;;;;34.07;15.17;;;-0.90;99.90;;;;;;4940265;29;20852;-69
2022/02/12 07:22:39;;;;;;;38.70;15.50;;;-0.80;99.90;;;;;;4943078;29;20944;-65
2022/02/12 07:25:06;;;;;;;22.73;16.00;;;-0.80;99.90;;;;;;4943335;29;20481;-66
2022/02/12 07:27:34;;;;;;;16.60;15.00;;;-0.80;99.90;;;;;;4942520;29;20460;-66
2022/02/12 07:30:01;;;;;;;15.07;13.63;;;-0.60;99.90;;;;;;4943722;29;20885;-67
2022/02/12 07:32:28;;;;;;;17.03;15.33;;;-0.40;99.90;;;;;;4940948;29;20472;-66
2022/02/12 07:34:55;;;;;;;15.87;14.30;;;0.10;99.90;;;;;;4940305;29;20453;-65
2022/02/12 07:37:23;;;;;;;13.80;11.90;;;0.40;99.90;;;;;;4940021;29;20987;-66
2022/02/12 07:39:49;;;;;;;12.90;11.60;;;1.10;99.90;;;;;;4939706;29;20467;-66
2022/02/12 07:42:16;;;;;;;12.50;11.20;;;1.60;99.90;;;;;;4939846;29;20481;-66
2022/02/12 07:44:43;;;;;;;11.37;10.00;;;2.10;99.90;;;;;;4940365;29;20464;-66
2022/02/12 07:47:10;;;;;;;11.00;9.83;;;2.70;99.90;;;;;;4945587;29;20468;-66
2022/02/12 07:49:36;;;;;;;10.93;9.93;;;3.40;99.90;;;;;;4948098;29;20439;-66
2022/02/12 07:52:04;;;;;;;12.77;10.20;;;3.80;99.90;;;;;;4939814;29;20490;-66
2022/02/12 07:54:32;;;;;;;13.30;9.17;;;4.60;99.90;;;;;;4939698;29;20901;-67
2022/02/12 07:56:59;;;;;;;24.07;8.53;;;5.40;99.90;;;;;;4939431;29;20464;-66
2022/02/12 07:59:26;;;;;;;9.77;8.60;;;5.60;99.90;;;;;;4939267;29;20948;-67
2022/02/12 08:01:53;;;;;;;8.43;7.63;;;6.30;99.90;;;;;;4938904;29;20484;-66
2022/02/12 08:04:20;;;;;;;8.93;8.13;;;7.00;99.90;;;;;;4939303;29;20968;-66
2022/02/12 08:09:32;;;;;;;8.17;7.40;;;8.20;99.90;;;;;;4939100;29;20421;-66
2022/02/12 08:12:06;;;;;;;9.17;7.83;;;8.90;99.90;;;;;;4939079;29;20538;-66
2022/02/12 08:14:33;;;;;;;10.10;9.10;;;9.40;99.90;;;;;;4939048;29;20516;-66
2022/02/12 08:17:00;;;;;;;11.47;10.37;;;9.80;99.90;;;;;;4939185;29;20468;-67
2022/02/12 08:19:27;;;;;;;10.80;9.47;;;10.70;99.90;;;;;;4939162;29;20798;-67
2022/02/12 08:21:53;;;;;;;9.50;8.60;;;11.20;97.20;;;;;;4938597;29;20473;-67
2022/02/12 08:24:20;;;;;;;9.77;8.77;;;12.10;97.50;;;;;;4939152;29;20979;-67
2022/02/12 08:26:48;;;;;;;9.27;8.30;;;12.80;94.70;;;;;;4939125;29;20464;-68
2022/02/12 08:29:16;;;;;;;8.20;7.40;;;13.00;92.40;;;;;;4940029;29;20461;-67
2022/02/12 08:31:43;;;;;;;9.33;8.53;;;13.90;90.40;;;;;;4938499;29;21022;-68
2022/02/12 08:34:09;;;;;;;9.37;8.57;;;14.40;86.70;;;;;;4938835;29;20457;-67
2022/02/12 08:36:36;;;;;;;9.23;8.53;;;14.70;83.50;;;;;;4939177;29;20821;-68
2022/02/12 08:39:03;;;;;;;10.00;9.20;;;15.70;80.70;;;;;;4938817;29;20963;-67
2022/02/12 08:41:30;;;;;;;10.13;9.30;;;15.90;77.20;;;;;;4941459;29;20815;-67
2022/02/12 08:43:58;;;;;;;10.83;9.93;;;16.60;72.00;;;;;;4938889;29;20468;-67
2022/02/12 08:46:24;;;;;;;11.63;10.63;;;15.90;69.40;;;;;;4939663;29;20464;-68
2022/02/12 08:48:51;;;;;;;11.00;10.00;;;15.80;71.50;;;;;;4953821;29;20471;-67
2022/02/12 08:51:18;;;;;;;10.10;9.30;;;15.10;68.70;;;;;;4954152;29;20535;-68
2022/02/12 08:53:44;;;;;;;9.73;8.73;;;15.20;72.70;;;;;;4938990;29;20456;-68
2022/02/12 08:56:11;;;;;;;10.00;9.10;;;15.40;70.20;;;;;;4939234;29;20465;-68
2022/02/12 08:58:39;;;;;;;9.83;8.90;;;15.40;71.30;;;;;;4942565;29;20441;-67
2022/02/12 09:01:08;;;;;;;10.40;9.40;;;16.20;69.90;;;;;;4943934;29;20892;-68
2022/02/12 09:03:34;;;;;;;9.20;8.30;;;16.90;67.50;;;;;;4938981;29;20457;-68
2022/02/12 09:06:01;;;;;;;11.73;10.53;;;17.30;66.60;;;;;;4939071;29;20460;-68
2022/02/12 09:08:28;;;;;;;10.50;9.60;;;17.40;67.00;;;;;;4938435;29;20885;-68
2022/02/12 09:10:55;;;;;;;9.07;8.00;;;18.00;63.80;;;;;;4938663;29;20480;-68
2022/02/12 09:13:22;;;;;;;9.20;8.30;;;18.10;63.10;;;;;;4938519;29;20461;-68
2022/02/12 09:15:49;;;;;;;11.87;8.60;;;18.10;59.80;;;;;;4937890;29;20975;-68
2022/02/12 09:18:17;;;;;;;9.67;8.67;;;18.10;59.50;;;;;;4938432;29;20457;-68
2022/02/12 09:20:43;;;;;;;8.73;7.83;;;16.80;61.70;;;;;;4939097;29;20484;-67
2022/02/12 09:23:12;;;;;;;8.90;8.00;;;15.60;63.60;;;;;;4938692;29;20456;-68
2022/02/12 09:25:38;;;;;;;7.47;6.77;;;15.70;65.60;;;;;;4940672;29;20460;-67
2022/02/12 09:28:05;;;;;;;8.90;6.77;;;16.50;63.00;;;;;;4940017;29;20468;-67
2022/02/12 09:30:32;;;;;;;8.17;6.70;;;16.40;64.70;;;;;;4939245;29;21800;-67
2022/02/12 09:32:58;;;;;;;9.03;7.10;;;16.80;63.40;;;;;;4939345;29;20456;-68
2022/02/12 09:35:27;;;;;;;8.90;7.30;;;16.20;64.60;;;;;;4938733;29;20457;-68
2022/02/12 09:37:54;;;;;;;9.60;6.83;;;16.40;64.20;;;;;;4938255;29;20460;-68
2022/02/12 09:40:21;;;;;;;9.50;8.27;;;16.60;63.30;;;;;;4939246;29;20453;-67
2022/02/12 09:42:49;;;;;;;10.80;7.60;;;16.40;62.30;;;;;;4943727;29;20460;-68
2022/02/12 09:45:15;;;;;;;8.93;7.90;;;16.70;62.40;;;;;;4952238;29;20449;-67
2022/02/12 09:47:47;;;;;;;7.83;7.10;;;16.60;62.50;;;;;;4940317;29;20461;-68
2022/02/12 09:50:15;;;;;;;10.10;7.70;;;16.90;62.30;;;;;;4938730;29;20484;-67
2022/02/12 09:52:48;;;;;;;9.63;8.63;;;16.50;62.40;;;;;;4938132;29;20476;-66
2022/02/12 09:55:15;;;;;;;8.80;7.90;;;17.00;64.00;;;;;;4938061;29;20437;-67
2022/02/12 09:57:42;;;;;;;12.03;10.13;;;17.10;61.60;;;;;;4938111;29;20948;-67
2022/02/12 10:00:11;;;;;;;9.63;8.23;;;17.50;62.50;;;;;;4938744;29;20464;-67
2022/02/12 10:02:38;;;;;;;8.03;7.33;;;17.60;63.10;;;;;;4937701;29;20941;-68
2022/02/12 10:05:19;;;;;;;9.20;7.97;;;17.60;63.20;;;;;;4938395;29;20453;-68
2022/02/12 10:07:48;;;;;;;9.00;8.10;;;17.50;62.10;;;;;;4938546;29;20448;-67
2022/02/12 10:10:16;;;;;;;10.40;8.57;;;17.80;62.30;;;;;;4938131;29;20471;-67
2022/02/12 10:12:43;;;;;;;10.70;8.00;;;17.60;62.70;;;;;;4938640;29;21003;-68
2022/02/12 10:15:23;;;;;;;11.53;7.73;;;17.40;64.00;;;;;;4938379;29;20452;-67
2022/02/12 10:17:54;;;;;;;11.13;8.63;;;17.80;61.40;;;;;;4939441;29;20469;-68
2022/02/12 10:20:32;;;;;;;9.10;7.37;;;17.90;62.50;;;;;;4947646;28;20465;-68
2022/02/12 10:23:12;;;;;;;13.63;8.73;;;17.60;68.60;;;;;;4954650;29;20520;-68
2022/02/12 10:25:42;;;;;;;12.43;8.43;;;18.30;68.90;;;;;;4940507;29;20793;-68
2022/02/12 10:28:10;;;;;;;10.87;8.00;;;18.60;63.00;;;;;;4937790;29;20464;-66
2022/02/12 10:30:37;;;;;;;10.57;7.90;;;18.50;60.50;;;;;;4937380;29;20995;-67
2022/02/12 10:33:06;;;;;;;11.23;7.47;;;18.70;59.70;;;;;;4938473;29;20481;-67
2022/02/12 10:35:34;;;;;;;8.47;7.70;;;19.10;59.20;;;;;;4939736;29;20456;-67
2022/02/12 10:38:03;;;;;;;9.27;7.00;;;19.20;58.40;;;;;;4940276;29;20460;-67
2022/02/12 10:40:33;;;;;;;11.17;7.57;;;18.50;58.60;;;;;;4946206;29;20540;-67
2022/02/12 10:43:00;;;;;;;9.20;7.30;;;18.60;58.90;;;;;;4941589;29;20457;-67
2022/02/12 10:45:29;;;;;;;10.80;6.63;;;18.10;60.20;;;;;;4938223;29;20495;-66
2022/02/12 10:47:57;;;;;;;10.10;6.50;;;18.80;59.10;;;;;;4938051;29;20560;-68
2022/02/12 10:50:26;;;;;;;9.90;6.93;;;18.90;58.90;;;;;;4937998;29;20888;-67
2022/02/12 10:52:56;;;;;;;10.10;7.00;;;19.20;58.70;;;;;;4938475;29;20476;-67
2022/02/12 10:55:31;;;;;;;8.73;6.20;;;18.70;57.90;;;;;;4938643;29;20541;-68
2022/02/12 10:58:02;;;;;;;10.50;6.70;;;18.40;58.00;;;;;;4938145;29;20473;-66
2022/02/12 11:00:30;;;;;;;7.77;6.77;;;18.40;58.80;;;;;;4937975;29;20995;-66
2022/02/12 11:02:58;;;;;;;9.53;6.63;;;17.80;60.60;;;;;;4952728;29;20409;-67
2022/02/12 11:05:27;;;;;;;8.40;6.50;;;18.00;60.50;;;;;;4955200;29;20569;-66
2022/02/12 11:07:55;;;;;;;12.20;6.83;;;18.20;76.60;;;;;;4942938;29;20456;-66
2022/02/12 11:10:22;;;;;;;12.63;7.00;;;17.90;64.40;;;;;;4941151;29;20468;-66
2022/02/12 11:12:50;;;;;;;7.37;6.30;;;17.40;65.20;;;;;;4940847;29;20825;-65
2022/02/12 11:15:18;;;;;;;8.00;6.87;;;15.90;69.50;;;;;;4940964;29;20456;-67
2022/02/12 11:17:47;;;;;;;9.77;5.30;;;14.80;70.50;;;;;;4940491;29;20456;-66
2022/02/12 11:20:15;;;;;;;8.07;4.97;;;14.60;74.30;;;;;;4940650;29;20464;-66
2022/02/12 11:22:42;;;;;;;10.37;5.73;;;14.40;69.90;;;;;;4940238;29;20464;-66
2022/02/12 11:25:35;;;;;;;5.67;4.20;;;14.20;71.50;;;;;;4940139;29;20456;-66
2022/02/12 11:28:07;;;;;;;4.77;3.87;;;13.70;78.10;;;;;;4940316;29;20460;-66
2022/02/12 11:30:37;;;;;;;5.33;3.70;;;13.40;69.90;;;;;;4940873;29;20536;-66
2022/02/12 11:33:09;;;;;;;8.33;4.37;;;12.80;69.40;;;;;;4955841;29;20563;-66
2022/02/12 11:35:36;;;;;;;5.53;4.47;;;12.50;74.10;;;;;;4946083;29;20437;-67
2022/02/12 11:38:05;;;;;;;5.73;4.10;;;12.20;75.30;;;;;;4944529;29;20461;-65
2022/02/12 11:40:32;;;;;;;6.80;4.57;;;11.70;71.60;;;;;;4942576;29;20457;-66
2022/02/12 11:43:00;;;;;;;9.33;4.40;;;11.00;72.10;;;;;;4953380;29;20467;-66
2022/02/12 11:45:33;;;;;;;9.90;4.53;;;10.70;73.70;;;;;;4953758;29;20457;-66
2022/02/12 11:48:28;;;;;;;6.17;4.30;;;10.60;77.20;;;;;;4946762;29;20444;-65
2022/02/12 11:50:57;;;;;;;9.63;5.67;;;10.50;76.20;;;;;;4940491;29;20480;-66
2022/02/12 11:53:38;;;;;;;12.23;5.27;;;10.50;79.30;;;;;;4950882;29;20484;-66
2022/02/12 11:56:10;;;;;;;9.20;4.77;;;10.50;80.80;;;;;;4958523;29;20472;-65
2022/02/12 11:59:05;;;;;;;7.50;4.40;;;10.50;75.60;;;;;;4944722;29;20445;-65
2022/02/12 12:01:45;;;;;;;9.60;4.60;;;10.30;77.30;;;;;;4887531;29;20526;-66
2022/02/12 12:04:18;;;;;;;9.80;4.30;;;10.10;77.70;;;;;;4942553;29;20812;-65
2022/02/12 12:07:13;;;;;;;8.70;4.37;;;10.10;77.00;;;;;;4941773;29;20473;-65
2022/02/12 12:09:56;;;;;;;9.80;4.40;;;10.10;77.20;;;;;;4942013;29;20939;-65
2022/02/12 12:12:23;;;;;;;6.47;3.67;;;10.10;78.90;;;;;;4941215;29;20491;-65
2022/02/12 12:14:51;;;;;;;6.20;3.83;;;10.30;76.10;;;;;;4940550;29;20481;-66
2022/02/12 12:17:24;;;;;;;5.70;4.43;;;10.10;72.50;;;;;;4941153;29;20445;-65
2022/02/12 12:19:53;;;;;;;6.60;4.37;;;9.90;74.30;;;;;;4941135;29;20441;-65
2022/02/12 12:22:20;;;;;;;6.97;3.93;;;9.80;76.90;;;;;;4941155;29;20494;-66
2022/02/12 12:24:47;;;;;;;8.20;3.70;;;9.80;77.10;;;;;;4947223;29;20472;-64
2022/02/12 12:27:18;;;;;;;6.60;3.93;;;9.90;77.30;;;;;;4958115;29;20453;-65
2022/02/12 12:32:31;;;;;;;3.53;3.27;;;10.10;76.60;;;;;;4958276;29;20480;-66
2022/02/12 12:35:03;;;;;;;2.97;2.70;;;10.20;72.80;;;;;;4961159;29;20477;-66
2022/02/12 12:37:34;;;;;;;4.80;4.13;;;10.20;69.10;;;;;;4960791;29;20464;-65
2022/02/12 12:40:03;;;;;;;4.70;3.17;;;10.10;68.80;;;;;;4961112;28;20531;-65
2022/02/12 12:42:31;;;;;;;3.53;3.07;;;10.10;71.10;;;;;;4959681;29;20465;-65
2022/02/12 12:44:59;;;;;;;4.70;2.40;;;10.00;68.80;;;;;;4959654;29;20449;-66
2022/02/12 12:47:26;;;;;;;6.43;3.40;;;10.00;67.20;;;;;;4953322;29;20444;-65
2022/02/12 12:49:55;;;;;;;2.63;2.43;;;10.20;68.40;;;;;;4946775;29;20800;-65
2022/02/12 12:52:24;;;;;;;3.40;2.60;;;10.30;65.00;;;;;;4939471;29;20495;-65
2022/02/12 12:54:55;;;;;;;3.07;2.87;;;10.00;61.80;;;;;;4939351;29;20535;-66
2022/02/12 12:57:28;;;;;;;3.87;2.80;;;9.80;63.60;;;;;;4939440;29;20793;-65
2022/02/12 12:59:57;;;;;;;3.00;2.70;;;9.70;67.50;;;;;;4939199;29;20803;-65
2022/02/12 13:02:24;;;;;;;2.70;2.40;;;9.70;64.70;;;;;;4939083;29;20508;-65
2022/02/12 13:04:53;;;;;;;3.60;3.27;;;9.80;65.40;;;;;;4939262;29;20516;-65
2022/02/12 13:07:24;;;;;;;2.93;2.70;;;9.60;63.40;;;;;;4939108;29;20461;-65
2022/02/12 13:09:51;;;;;;;3.30;2.97;;;9.40;62.60;;;;;;4938948;29;20449;-65
2022/02/12 13:12:33;;;;;;;2.67;2.47;;;9.50;63.50;;;;;;4940372;29;20488;-65
2022/02/12 13:15:01;;;;;;;3.37;2.60;;;9.50;63.20;;;;;;4939999;29;20445;-65
2022/02/12 13:17:28;;;;;;;2.40;2.30;;;9.40;62.60;;;;;;4948075;29;20528;-65
2022/02/12 13:19:59;;;;;;;4.23;3.10;;;9.30;62.70;;;;;;4956072;29;20453;-65
2022/02/12 13:22:31;;;;;;;3.10;2.80;;;9.20;62.90;;;;;;4954193;29;20487;-65
2022/02/12 13:24:59;;;;;;;3.00;2.70;;;9.30;64.60;;;;;;4955358;29;20504;-65
2022/02/12 13:27:27;;;;;;;2.97;2.67;;;9.50;81.00;;;;;;4952392;29;20452;-65
2022/02/12 13:30:02;;;;;;;2.93;2.73;;;9.80;99.90;;;;;;4947612;29;20484;-66
2022/02/12 13:32:38;;;;;;;3.53;3.00;;;10.10;99.90;;;;;;4942510;29;20489;-65
2022/02/12 13:35:06;;;;;;;2.63;2.43;;;10.50;78.70;;;;;;4939320;29;20455;-66
2022/02/12 13:37:37;;;;;;;2.50;2.30;;;10.60;69.20;;;;;;4938836;29;20488;-66
2022/02/12 13:40:06;;;;;;;3.27;2.63;;;10.70;63.70;;;;;;4938744;29;20476;-66
2022/02/12 13:42:33;;;;;;;5.47;3.77;;;10.70;60.50;;;;;;4939062;29;20472;-66
2022/02/12 13:45:01;;;;;;;8.97;4.40;;;10.50;60.10;;;;;;4939842;29;20464;-66
2022/02/12 13:47:28;;;;;;;4.30;3.10;;;10.40;61.40;;;;;;4949983;29;20457;-66
2022/02/12 13:49:55;;;;;;;8.93;4.37;;;10.40;62.40;;;;;;4956122;29;20448;-67
2022/02/12 13:52:23;;;;;;;3.97;3.23;;;10.50;62.50;;;;;;4949360;29;20488;-66
2022/02/12 13:55:06;;;;;;;3.70;3.40;;;10.30;62.40;;;;;;4947948;29;20437;-66
2022/02/12 13:57:34;;;;;;;3.17;2.97;;;10.10;61.90;;;;;;4939793;29;20445;-67
2022/02/12 14:00:01;;;;;;;3.83;3.30;;;9.90;78.10;;;;;;4938946;29;20484;-66
2022/02/12 14:02:27;;;;;;;3.50;3.20;;;9.90;64.70;;;;;;4937941;29;20481;-66
2022/02/12 14:04:55;;;;;;;4.63;3.10;;;9.70;63.90;;;;;;4939179;29;20456;-65
2022/02/12 14:07:22;;;;;;;4.70;3.10;;;9.70;63.80;;;;;;4938607;29;20488;-65
2022/02/12 14:09:50;;;;;;;5.60;4.00;;;9.60;64.30;;;;;;4939593;29;20489;-65
2022/02/12 14:12:21;;;;;;;4.77;3.03;;;9.50;64.90;;;;;;4937786;29;20505;-65
2022/02/12 14:14:48;;;;;;;4.40;3.50;;;9.50;64.30;;;;;;4942428;29;20468;-65
2022/02/12 14:17:16;;;;;;;3.30;3.00;;;9.50;64.80;;;;;;4944399;29;20441;-65
2022/02/12 14:19:42;;;;;;;3.27;2.97;;;9.40;63.50;;;;;;4949431;29;20451;-65
2022/02/12 14:22:09;;;;;;;3.60;3.30;;;9.40;63.70;;;;;;4948727;29;20481;-64
2022/02/12 14:24:36;;;;;;;5.80;3.27;;;9.40;64.60;;;;;;4938855;29;20864;-66
2022/02/12 14:27:03;;;;;;;4.63;3.77;;;9.40;65.20;;;;;;4941699;29;20480;-64
2022/02/12 14:29:31;;;;;;;4.57;3.40;;;9.20;63.50;;;;;;4938454;29;20453;-65
2022/02/12 14:31:58;;;;;;;3.60;3.30;;;9.20;65.20;;;;;;4938059;29;20481;-66
2022/02/12 14:34:25;;;;;;;6.43;4.00;;;9.10;66.20;;;;;;4949664;29;20472;-65
2022/02/12 14:36:54;;;;;;;3.63;3.23;;;9.00;66.20;;;;;;4946783;29;20456;-66
2022/02/12 14:39:21;;;;;;;4.30;3.60;;;8.90;66.60;;;;;;4942824;29;20825;-66
2022/02/12 14:41:47;;;;;;;5.30;3.77;;;8.80;67.30;;;;;;4941539;29;20551;-65
2022/02/12 14:44:14;;;;;;;4.90;4.07;;;8.80;67.70;;;;;;4942739;29;20436;-66
2022/02/12 14:46:43;;;;;;;10.00;3.83;;;8.70;68.50;;;;;;4945932;29;20468;-64
2022/02/12 14:49:13;;;;;;;5.40;4.10;;;8.80;70.00;;;;;;4944805;29;20908;-65
2022/02/12 14:51:40;;;;;;;4.00;3.60;;;8.70;69.90;;;;;;4941783;29;20507;-65
2022/02/12 14:54:08;;;;;;;4.10;3.80;;;8.70;70.50;;;;;;4945779;29;20476;-66
2022/02/12 14:56:35;;;;;;;4.90;3.80;;;8.70;71.20;;;;;;4945994;29;20441;-65
2022/02/12 14:59:01;;;;;;;5.77;4.60;;;8.70;71.10;;;;;;4953362;29;20441;-66
2022/02/12 15:01:29;;;;;;;5.63;4.87;;;8.60;71.10;;;;;;4945374;29;20848;-65
2022/02/12 15:03:57;;;;;;;4.83;4.43;;;8.50;72.60;;;;;;4941483;29;20796;-65
2022/02/12 15:06:25;;;;;;;4.93;4.37;;;8.50;73.70;;;;;;4940488;29;20943;-64
2022/02/12 15:08:52;;;;;;;4.77;4.40;;;8.60;74.90;;;;;;4941169;29;20521;-65
2022/02/12 15:11:19;;;;;;;5.70;4.50;;;8.50;74.60;;;;;;4952753;29;20480;-66
2022/02/12 15:13:45;;;;;;;9.50;4.20;;;8.50;75.80;;;;;;4948528;29;20473;-66
2022/02/12 15:16:12;;;;;;;5.83;5.13;;;8.30;75.90;;;;;;4940652;29;20461;-65
2022/02/12 15:18:39;;;;;;;7.20;5.47;;;8.30;76.90;;;;;;4941414;29;20486;-65
2022/02/12 15:21:07;;;;;;;7.70;5.53;;;8.30;77.80;;;;;;4961888;29;20553;-65
2022/02/12 15:23:34;;;;;;;6.67;5.40;;;8.30;78.30;;;;;;4962984;29;20436;-65
2022/02/12 15:26:02;;;;;;;5.90;4.60;;;8.30;78.40;;;;;;4963196;28;20437;-65
2022/02/12 15:28:28;;;;;;;6.67;5.43;;;8.30;78.90;;;;;;4953275;29;20828;-65
2022/02/12 15:30:55;;;;;;;7.00;4.97;;;8.20;78.90;;;;;;4942599;29;20640;-66
2022/02/12 15:33:22;;;;;;;7.10;5.57;;;8.10;79.80;;;;;;4941563;29;20481;-65
2022/02/12 15:35:49;;;;;;;8.80;5.70;;;8.00;80.50;;;;;;4943867;29;20460;-66
2022/02/12 15:38:17;;;;;;;6.03;5.40;;;7.90;81.20;;;;;;4958898;29;20461;-64
2022/02/12 15:40:44;;;;;;;7.47;5.80;;;7.90;82.90;;;;;;4939934;29;20969;-66
2022/02/12 15:43:11;;;;;;;7.13;5.80;;;7.80;84.40;;;;;;4940811;29;20460;-64
2022/02/12 15:45:38;;;;;;;6.93;6.03;;;7.80;85.50;;;;;;4939972;29;20456;-64
2022/02/12 15:48:06;;;;;;;9.93;6.20;;;7.80;86.40;;;;;;4939997;29;20467;-64
2022/02/12 15:50:32;;;;;;;10.13;6.50;;;7.70;86.90;;;;;;4939534;29;20445;-65
2022/02/12 15:52:59;;;;;;;12.10;6.40;;;7.60;86.00;;;;;;4940621;29;20484;-66
2022/02/12 15:55:31;;;;;;;8.20;7.40;;;7.60;87.40;;;;;;4940142;29;20441;-65
2022/02/12 15:57:59;;;;;;;7.43;6.73;;;7.50;87.90;;;;;;4940323;29;20452;-64
2022/02/12 16:00:26;;;;;;;8.07;6.60;;;7.40;88.60;;;;;;4941208;29;20483;-65
2022/02/12 16:02:54;;;;;;;8.60;6.87;;;7.30;89.50;;;;;;4941170;29;20432;-64
2022/02/12 16:05:21;;;;;;;8.30;7.20;;;7.30;90.20;;;;;;4940641;29;20445;-64
2022/02/12 16:07:47;;;;;;;8.77;7.23;;;7.30;90.20;;;;;;4940350;29;20464;-65
2022/02/12 16:10:14;;;;;;;9.20;7.13;;;7.30;90.60;;;;;;4940408;29;20457;-67
2022/02/12 16:12:47;;;;;;;10.50;6.67;;;7.20;90.90;;;;;;4942924;29;20517;-68
2022/02/12 16:15:14;;;;;;;9.40;6.87;;;7.20;91.30;;;;;;4941489;29;20437;-68
2022/02/12 16:17:41;;;;;;;11.70;7.73;;;7.20;91.60;;;;;;4940406;29;20533;-68
2022/02/12 16:20:09;;;;;;;11.53;7.33;;;7.10;91.80;;;;;;4942153;29;20452;-68
2022/02/12 16:22:35;;;;;;;8.50;7.23;;;7.10;92.10;;;;;;4956579;29;20473;-68
2022/02/12 16:25:04;;;;;;;10.17;8.43;;;7.10;92.30;;;;;;4944676;29;20433;-67
2022/02/12 16:27:31;;;;;;;8.03;7.00;;;7.00;92.50;;;;;;4940254;29;20777;-68
2022/02/12 16:29:59;;;;;;;15.03;8.30;;;6.90;92.80;;;;;;4949593;29;20440;-67
2022/02/12 16:32:26;;;;;;;10.30;8.27;;;6.90;93.10;;;;;;4945597;29;20586;-66
2022/02/12 16:34:53;;;;;;;8.60;7.40;;;6.90;93.50;;;;;;4939947;29;20995;-66
2022/02/12 16:37:20;;;;;;;8.77;7.93;;;6.80;93.60;;;;;;4939463;29;20448;-66
2022/02/12 16:39:46;;;;;;;9.30;6.77;;;6.80;93.90;;;;;;4939154;29;20476;-66
2022/02/12 16:42:14;;;;;;;10.90;8.03;;;6.80;94.20;;;;;;4938691;29;20488;-67
2022/02/12 16:44:40;;;;;;;13.27;8.33;;;6.80;94.40;;;;;;4938437;29;20468;-67
2022/02/12 16:47:09;;;;;;;10.30;7.47;;;6.70;94.60;;;;;;4939750;29;20456;-67
2022/02/12 16:49:39;;;;;;;13.10;8.10;;;6.70;94.80;;;;;;4940206;29;20461;-67
2022/02/12 16:52:06;;;;;;;11.87;8.30;;;6.60;95.00;;;;;;4939545;29;21039;-67
2022/02/12 16:54:33;;;;;;;15.23;8.93;;;6.60;95.10;;;;;;4939619;29;20479;-66
2022/02/12 16:57:00;;;;;;;10.30;8.37;;;6.50;95.30;;;;;;4939487;29;20944;-67
2022/02/12 16:59:27;;;;;;;10.50;8.57;;;6.50;95.70;;;;;;4938866;29;20457;-67
2022/02/12 17:01:55;;;;;;;8.83;7.90;;;6.40;95.70;;;;;;4940004;29;20492;-67
2022/02/12 17:04:23;;;;;;;10.63;7.90;;;6.40;95.80;;;;;;4942666;29;20456;-67
2022/02/12 17:06:50;;;;;;;8.67;7.77;;;6.30;96.10;;;;;;4944521;29;20465;-67
2022/02/12 17:09:17;;;;;;;9.67;7.27;;;6.30;96.20;;;;;;4939749;29;20472;-66
2022/02/12 17:11:43;;;;;;;11.57;7.60;;;6.20;96.10;;;;;;4938166;29;20476;-66
2022/02/12 17:14:10;;;;;;;9.97;7.90;;;6.20;95.90;;;;;;4939315;29;20488;-66
2022/02/12 17:16:37;;;;;;;10.90;9.60;;;6.20;96.10;;;;;;4938812;29;20918;-65
2022/02/12 17:19:04;;;;;;;8.73;7.80;;;6.20;96.50;;;;;;4939088;29;20543;-66
2022/02/12 17:21:32;;;;;;;12.63;8.37;;;6.10;96.80;;;;;;4939244;29;20487;-66
2022/02/12 17:23:59;;;;;;;9.57;8.60;;;6.10;97.00;;;;;;4938591;29;20455;-67
2022/02/12 17:26:25;;;;;;;10.40;7.67;;;6.10;97.10;;;;;;4938552;29;20463;-67
2022/02/12 17:28:52;;;;;;;9.97;8.30;;;6.10;96.80;;;;;;4939897;29;20486;-66
2022/02/12 17:31:19;;;;;;;10.70;8.83;;;6.10;96.80;;;;;;4942594;29;20483;-66
2022/02/12 17:33:47;;;;;;;13.13;8.77;;;6.00;96.80;;;;;;4939001;29;20516;-66
2022/02/12 17:36:14;;;;;;;15.37;9.17;;;6.00;96.80;;;;;;4937576;29;20540;-66
2022/02/12 17:38:42;;;;;;;11.63;8.97;;;6.00;97.00;;;;;;4938988;29;20484;-66
2022/02/12 17:41:09;;;;;;;10.10;9.00;;;6.00;97.30;;;;;;4953392;29;20456;-67
2022/02/12 17:43:37;;;;;;;11.40;9.00;;;6.00;97.40;;;;;;4954425;29;20464;-66
2022/02/12 17:46:04;;;;;;;11.23;10.00;;;6.00;97.20;;;;;;4947995;29;20509;-66
2022/02/12 17:48:31;;;;;;;15.43;11.57;;;6.00;97.20;;;;;;4947116;29;20460;-66
2022/02/12 17:50:57;;;;;;;11.87;9.60;;;5.90;97.40;;;;;;4939759;29;20480;-66
2022/02/12 17:53:24;;;;;;;16.30;9.90;;;5.90;97.50;;;;;;4938495;29;20464;-67
2022/02/12 17:55:52;;;;;;;12.07;10.43;;;5.90;97.60;;;;;;4937980;29;20461;-67